Time;durP1;ratioP1;P1;durP2;ratioP2;P2;SDS_P1;SDS_P2;PMS_P1;PMS_P2;Temp;Humidity;BMP_temperature;BMP_pressure;BME280_temperature;BME280_humidity;BME280_pressure;Samples;Min_cycle;Max_cycle;Signal;HPM_P1;HPM_P2
2022/08/31 00:04:03;;;;;;;;;;;;;;;16.34;100.00;100650.59;3058599;19;960;-47
2022/08/31 00:05:05;;;;;;;;;;;;;;;16.32;100.00;100655.25;3058525;19;863;-46
2022/08/31 00:06:10;;;;;;;;;;;;;;;16.29;100.00;100650.16;3058605;19;929;-46
2022/08/31 00:07:12;;;;;;;;;;;;;;;16.28;100.00;100648.44;3058314;19;1058;-48
2022/08/31 00:08:16;;;;;;;;;;;;;;;16.25;100.00;100651.38;3058026;19;881;-45
2022/08/31 00:09:19;;;;;;;;;;;;;;;16.24;100.00;100646.97;3058490;19;1035;-46
2022/08/31 00:10:26;;;;;;;;;;;;;;;16.21;100.00;100648.91;3058213;19;1039;-48
2022/08/31 00:11:40;;;;;;;;;;;;;;;16.18;100.00;100653.72;3058569;19;855;-47
2022/08/31 00:12:43;;;;;;;;;;;;;;;16.15;100.00;100641.38;3058598;19;802;-47
2022/08/31 00:13:48;;;;;;;;;;;;;;;16.12;100.00;100644.31;3058664;19;978;-47
2022/08/31 00:14:50;;;;;;;;;;;;;;;16.09;100.00;100644.53;3058747;19;893;-46
2022/08/31 00:15:54;;;;;;;;;;;;;;;16.09;100.00;100647.25;3058240;19;1001;-49
2022/08/31 00:16:57;;;;;;;;;;;;;;;16.06;100.00;100647.47;3058642;19;912;-46
2022/08/31 00:18:01;;;;;;;;;;;;;;;16.04;100.00;100641.41;3058366;19;972;-46
2022/08/31 00:19:03;;;;;;;;;;;;;;;16.03;100.00;100638.81;3058467;19;881;-45
2022/08/31 00:20:08;;;;;;;;;;;;;;;16.02;100.00;100648.75;3058517;19;929;-45
2022/08/31 00:21:33;;;;;;;;;;;;;;;16.00;100.00;100645.31;3057782;19;1123;-47
2022/08/31 00:22:35;;;;;;;;;;;;;;;15.97;100.00;100648.25;3058467;19;859;-47
2022/08/31 00:23:39;;;;;;;;;;;;;;;15.95;100.00;100642.13;3058155;19;1840;-47
2022/08/31 00:24:41;;;;;;;;;;;;;;;15.92;100.00;100653.16;3058199;19;993;-47
2022/08/31 00:25:46;;;;;;;;;;;;;;;15.91;100.00;100645.22;3058322;19;932;-47
2022/08/31 00:26:48;;;;;;;;;;;;;;;15.88;100.00;100646.31;3058418;19;948;-48
2022/08/31 00:27:54;;;;;;;;;;;;;;;15.85;100.00;100647.41;3058230;19;791;-46
2022/08/31 00:28:56;;;;;;;;;;;;;;;15.83;100.00;100643.97;3057190;19;992;-46
2022/08/31 00:30:01;;;;;;;;;;;;;;;15.81;100.00;100651.34;3057434;19;953;-46
2022/08/31 00:31:03;;;;;;;;;;;;;;;15.78;100.00;100646.19;3058511;19;1010;-45
2022/08/31 00:32:08;;;;;;;;;;;;;;;15.76;100.00;100637.41;3058666;19;933;-48
2022/08/31 00:33:10;;;;;;;;;;;;;;;15.75;100.00;100640.19;3057343;19;988;-46
2022/08/31 00:34:15;;;;;;;;;;;;;;;15.74;100.00;100643.88;3057187;19;1686;-48
2022/08/31 00:35:17;;;;;;;;;;;;;;;15.72;100.00;100640.44;3058313;19;1033;-48
2022/08/31 00:36:22;;;;;;;;;;;;;;;15.71;100.00;100638.72;3058495;19;893;-45
2022/08/31 00:37:24;;;;;;;;;;;;;;;15.70;100.00;100639.69;3058054;19;1031;-48
2022/08/31 00:38:28;;;;;;;;;;;;;;;15.70;100.00;100631.63;3058447;19;1542;-47
2022/08/31 00:39:31;;;;;;;;;;;;;;;15.71;100.00;100636.03;3057295;19;1222;-46
2022/08/31 00:40:35;;;;;;;;;;;;;;;15.70;100.00;100632.50;3057324;19;911;-45
2022/08/31 00:41:48;;;;;;;;;;;;;;;15.70;100.00;100631.63;3058294;19;881;-47
2022/08/31 00:42:50;;;;;;;;;;;;;;;15.69;100.00;100629.94;3057913;19;945;-47
2022/08/31 00:44:02;;;;;;;;;;;;;;;15.69;100.00;100624.56;3057784;19;1854;-46
2022/08/31 00:45:04;;;;;;;;;;;;;;;15.69;100.00;100627.25;3057046;19;1777;-48
2022/08/31 00:46:10;;;;;;;;;;;;;;;15.69;100.00;100624.56;3057612;19;901;-48
2022/08/31 00:47:14;;;;;;;;;;;;;;;15.67;100.00;100622.00;3057915;19;1039;-46
2022/08/31 00:48:16;;;;;;;;;;;;;;;15.69;100.00;100629.94;3057621;19;954;-46
2022/08/31 00:49:25;;;;;;;;;;;;;;;15.68;100.00;100622.84;3057879;19;929;-47
2022/08/31 00:50:27;;;;;;;;;;;;;;;15.68;100.00;100634.47;3057497;19;1640;-48
2022/08/31 00:51:32;;;;;;;;;;;;;;;15.68;100.00;100628.25;3057843;19;953;-46
2022/08/31 00:52:38;;;;;;;;;;;;;;;15.66;100.00;100624.81;3057005;19;869;-45
2022/08/31 00:53:43;;;;;;;;;;;;;;;15.63;100.00;100633.13;3057072;19;886;-45
2022/08/31 00:54:47;;;;;;;;;;;;;;;15.61;100.00;100632.38;3057245;19;854;-45
2022/08/31 00:55:51;;;;;;;;;;;;;;;15.59;100.00;100634.34;3056860;19;1228;-46
2022/08/31 00:56:53;;;;;;;;;;;;;;;15.56;100.00;100632.78;3057061;19;949;-47
2022/08/31 00:57:58;;;;;;;;;;;;;;;15.52;100.00;100633.09;3056931;19;949;-48
2022/08/31 00:59:00;;;;;;;;;;;;;;;15.50;100.00;100636.75;3057077;19;944;-48
2022/08/31 01:00:06;;;;;;;;;;;;;;;15.47;100.00;100630.75;3056990;19;1003;-48
2022/08/31 01:01:08;;;;;;;;;;;;;;;15.43;100.00;100635.53;3057849;19;1032;-46
2022/08/31 01:02:13;;;;;;;;;;;;;;;15.41;100.00;100636.63;3056852;19;903;-47
2022/08/31 01:03:15;;;;;;;;;;;;;;;15.38;100.00;100640.41;3056946;19;893;-47
2022/08/31 01:04:19;;;;;;;;;;;;;;;15.34;100.00;100636.25;3056142;19;1856;-48
2022/08/31 01:05:21;;;;;;;;;;;;;;;15.31;100.00;100631.13;3057946;19;940;-48
2022/08/31 01:06:26;;;;;;;;;;;;;;;15.27;100.00;100629.66;3057787;19;992;-45
2022/08/31 01:07:28;;;;;;;;;;;;;;;15.25;100.00;100636.97;3057178;19;852;-49
2022/08/31 01:08:32;;;;;;;;;;;;;;;15.22;100.00;100634.53;3056702;19;1680;-45
2022/08/31 01:09:36;;;;;;;;;;;;;;;15.19;100.00;100632.09;3057032;19;892;-44
2022/08/31 01:10:42;;;;;;;;;;;;;;;15.17;100.00;100626.00;3056928;19;960;-46
2022/08/31 01:11:47;;;;;;;;;;;;;;;15.16;100.00;100639.53;3056881;19;1211;-48
2022/08/31 01:12:50;;;;;;;;;;;;;;;15.12;100.00;100626.34;3056021;19;1030;-46
2022/08/31 01:13:55;;;;;;;;;;;;;;;15.12;100.00;100628.16;3056629;19;965;-47
2022/08/31 01:14:57;;;;;;;;;;;;;;;15.10;100.00;100620.22;3056785;19;865;-47
2022/08/31 01:16:03;;;;;;;;;;;;;;;15.10;100.00;100616.66;3056934;19;937;-48
2022/08/31 01:17:06;;;;;;;;;;;;;;;15.08;100.00;100619.50;3055786;19;890;-46
2022/08/31 01:18:10;;;;;;;;;;;;;;;15.06;100.00;100615.22;3054165;19;1612;-47
2022/08/31 01:19:17;;;;;;;;;;;;;;;15.06;100.00;100625.97;3056385;19;945;-47
2022/08/31 01:20:30;;;;;;;;;;;;;;;15.05;100.00;100624.25;3056572;19;894;-46
2022/08/31 01:21:39;;;;;;;;;;;;;;;15.02;100.00;100622.66;3056680;19;1249;-46
2022/08/31 01:22:53;;;;;;;;;;;;;;;15.03;100.00;100615.44;3056718;19;1004;-47
2022/08/31 01:23:56;;;;;;;;;;;;;;;15.01;100.00;100618.25;3057318;19;1035;-46
2022/08/31 01:25:00;;;;;;;;;;;;;;;15.02;100.00;100616.44;3056894;19;1855;-48
2022/08/31 01:26:03;;;;;;;;;;;;;;;15.02;100.00;100619.13;3057769;19;877;-47
2022/08/31 01:27:07;;;;;;;;;;;;;;;15.03;100.00;100620.81;3056994;19;961;-47
2022/08/31 01:28:09;;;;;;;;;;;;;;;15.02;100.00;100619.13;3056532;19;956;-48
2022/08/31 01:29:14;;;;;;;;;;;;;;;15.02;100.00;100611.91;3056459;19;803;-46
2022/08/31 01:30:22;;;;;;;;;;;;;;;15.03;100.00;100610.06;3056763;19;929;-46
2022/08/31 01:31:32;;;;;;;;;;;;;;;15.04;100.00;100611.78;3056474;19;968;-45
2022/08/31 01:32:35;;;;;;;;;;;;;;;15.06;100.00;100609.84;3056548;19;1032;-48
2022/08/31 01:33:40;;;;;;;;;;;;;;;15.06;100.00;100601.78;3056769;19;849;-46
2022/08/31 01:34:42;;;;;;;;;;;;;;;15.07;100.00;100607.03;3056804;19;861;-48
2022/08/31 01:35:46;;;;;;;;;;;;;;;15.09;100.00;100605.06;3057456;19;921;-48
2022/08/31 01:36:48;;;;;;;;;;;;;;;15.09;100.00;100605.06;3056696;19;882;-47
2022/08/31 01:37:54;;;;;;;;;;;;;;;15.12;100.00;100601.28;3056573;19;1073;-48
2022/08/31 01:38:57;;;;;;;;;;;;;;;15.12;100.00;100595.91;3056446;19;885;-47
2022/08/31 01:40:01;;;;;;;;;;;;;;;15.13;100.00;100600.31;3056388;19;1587;-48
2022/08/31 01:41:05;;;;;;;;;;;;;;;15.16;100.00;100604.59;3056487;19;991;-48
2022/08/31 01:42:10;;;;;;;;;;;;;;;15.17;100.00;100596.41;3056529;19;1008;-47
2022/08/31 01:43:12;;;;;;;;;;;;;;;15.17;100.00;100596.41;3056281;19;949;-48
2022/08/31 01:44:19;;;;;;;;;;;;;;;15.19;100.00;100601.69;3056759;19;802;-49
2022/08/31 01:45:21;;;;;;;;;;;;;;;15.19;100.00;100589.09;3055217;19;1860;-46
2022/08/31 01:46:26;;;;;;;;;;;;;;;15.20;100.00;100590.81;3055951;19;1767;-46
2022/08/31 01:47:28;;;;;;;;;;;;;;;15.21;100.00;100592.53;3056086;19;969;-47
2022/08/31 01:48:33;;;;;;;;;;;;;;;15.23;100.00;100595.91;3056666;19;817;-46
2022/08/31 01:49:35;;;;;;;;;;;;;;;15.24;100.00;100596.78;3056277;19;933;-47
2022/08/31 01:50:40;;;;;;;;;;;;;;;15.24;100.00;100591.41;3055331;19;1640;-46
2022/08/31 01:51:42;;;;;;;;;;;;;;;15.24;100.00;100592.25;3056251;19;913;-45
2022/08/31 01:52:47;;;;;;;;;;;;;;;15.24;100.00;100594.94;3056389;19;892;-47
2022/08/31 01:53:49;;;;;;;;;;;;;;;15.25;100.00;100590.41;3056291;19;1242;-47
2022/08/31 01:54:54;;;;;;;;;;;;;;;15.24;100.00;100592.25;3056284;19;1060;-45
2022/08/31 01:55:56;;;;;;;;;;;;;;;15.24;100.00;100588.69;3056072;19;1051;-48
2022/08/31 01:57:00;;;;;;;;;;;;;;;15.23;100.00;100590.53;3056554;19;858;-48
2022/08/31 01:58:31;;;;;;;;;;;;;;;15.16;100.00;100578.56;3056138;19;1162;-47
2022/08/31 01:59:51;;;;;;;;;;;;;;;15.19;100.00;100594.47;3055769;19;972;-45
2022/08/31 02:01:14;;;;;;;;;;;;;;;15.18;100.00;100600.81;3056298;19;1036;-48
2022/08/31 02:02:37;;;;;;;;;;;;;;;15.17;100.00;100606.31;3056015;19;949;-48
2022/08/31 02:03:42;;;;;;;;;;;;;;;15.13;100.00;100597.63;3056056;19;965;-47
2022/08/31 02:04:46;;;;;;;;;;;;;;;15.12;100.00;100603.97;3055900;19;1851;-47
2022/08/31 02:05:48;;;;;;;;;;;;;;;15.04;100.00;100591.16;3057158;19;854;-46
2022/08/31 02:06:56;;;;;;;;;;;;;;;15.08;100.00;100597.16;3056085;19;1351;-45
2022/08/31 02:07:58;;;;;;;;;;;;;;;15.07;100.00;100603.50;3056299;19;889;-49
2022/08/31 02:09:02;;;;;;;;;;;;;;;15.05;100.00;100597.38;3055694;19;1039;-45
2022/08/31 02:10:05;;;;;;;;;;;;;;;15.04;100.00;100595.66;3056296;19;1619;-47
2022/08/31 02:11:11;;;;;;;;;;;;;;;15.02;100.00;100600.31;3056359;19;948;-48
2022/08/31 02:12:12;;;;;;;;;;;;;;;15.03;100.00;100604.69;3055911;19;1071;-46
2022/08/31 02:13:17;;;;;;;;;;;;;;;15.03;100.00;100607.38;3055944;19;1787;-48
2022/08/31 02:14:20;;;;;;;;;;;;;;;15.03;100.00;100610.94;3055841;19;1220;-48
2022/08/31 02:15:24;;;;;;;;;;;;;;;15.03;100.00;100607.38;3055487;19;976;-48
2022/08/31 02:16:26;;;;;;;;;;;;;;;15.04;100.00;100601.03;3055873;19;998;-45
2022/08/31 02:17:31;;;;;;;;;;;;;;;15.05;100.00;100608.13;3055864;19;929;-47
2022/08/31 02:18:33;;;;;;;;;;;;;;;15.04;100.00;100609.09;3056344;19;1111;-47
2022/08/31 02:19:38;;;;;;;;;;;;;;;15.04;100.00;100598.34;3055997;19;873;-46
2022/08/31 02:20:40;;;;;;;;;;;;;;;15.03;100.00;100600.19;3055953;19;977;-47
2022/08/31 02:21:44;;;;;;;;;;;;;;;15.04;100.00;100606.41;3055972;19;1058;-47
2022/08/31 02:22:47;;;;;;;;;;;;;;;15.04;100.00;100601.03;3055962;19;949;-46
2022/08/31 02:23:52;;;;;;;;;;;;;;;15.04;100.00;100601.91;3056115;19;916;-46
2022/08/31 02:24:54;;;;;;;;;;;;;;;15.04;100.00;100606.41;3057289;19;984;-45
2022/08/31 02:26:01;;;;;;;;;;;;;;;15.03;100.00;100610.94;3057978;19;1851;-46
2022/08/31 02:27:03;;;;;;;;;;;;;;;15.02;100.00;100603.84;3058834;19;940;-48
2022/08/31 02:28:11;;;;;;;;;;;;;;;15.04;100.00;100609.09;3058807;19;902;-49
2022/08/31 02:29:13;;;;;;;;;;;;;;;15.03;100.00;100610.94;3059026;19;992;-47
2022/08/31 02:30:20;;;;;;;;;;;;;;;15.03;100.00;100610.06;3059229;19;919;-47
2022/08/31 02:31:24;;;;;;;;;;;;;;;15.03;100.00;100610.06;3059075;19;893;-45
2022/08/31 02:32:33;;;;;;;;;;;;;;;15.01;100.00;100609.34;3059030;19;1227;-49
2022/08/31 02:33:35;;;;;;;;;;;;;;;15.01;100.00;100614.72;3058828;19;945;-46
2022/08/31 02:34:40;;;;;;;;;;;;;;;15.02;100.00;100611.06;3058994;19;1047;-48
2022/08/31 02:35:42;;;;;;;;;;;;;;;15.00;100.00;100605.78;3058947;19;917;-48
2022/08/31 02:36:47;;;;;;;;;;;;;;;15.01;100.00;100609.34;3059551;19;1690;-49
2022/08/31 02:37:49;;;;;;;;;;;;;;;15.02;100.00;100611.06;3058815;19;866;-47
2022/08/31 02:38:53;;;;;;;;;;;;;;;14.95;100.00;100599.06;3058859;19;861;-48
2022/08/31 02:39:56;;;;;;;;;;;;;;;15.00;100.00;100611.16;3059050;19;982;-48
2022/08/31 02:41:01;;;;;;;;;;;;;;;15.02;100.00;100621.81;3058759;19;1688;-48
2022/08/31 02:42:03;;;;;;;;;;;;;;;15.01;100.00;100614.72;3058812;19;1215;-46
2022/08/31 02:43:07;;;;;;;;;;;;;;;15.02;100.00;100613.72;3058628;19;1005;-48
2022/08/31 02:44:10;;;;;;;;;;;;;;;15.02;100.00;100619.13;3058541;19;950;-46
2022/08/31 02:45:14;;;;;;;;;;;;;;;15.02;100.00;100613.72;3058829;19;951;-47
2022/08/31 02:46:17;;;;;;;;;;;;;;;15.01;100.00;100612.03;3057364;19;1877;-46
2022/08/31 02:47:32;;;;;;;;;;;;;;;15.02;100.00;100616.44;3058989;19;794;-46
2022/08/31 02:49:03;;;;;;;;;;;;;;;14.96;100.00;100600.78;3058771;19;1318;-46
2022/08/31 02:50:05;;;;;;;;;;;;;;;15.01;100.00;100618.25;3058753;19;1049;-48
2022/08/31 02:51:11;;;;;;;;;;;;;;;15.00;100.00;100621.06;3059075;19;849;-45
2022/08/31 02:52:12;;;;;;;;;;;;;;;14.99;100.00;100625.56;3058484;19;1145;-45
2022/08/31 02:53:18;;;;;;;;;;;;;;;14.96;100.00;100624.97;3058637;19;822;-47
2022/08/31 02:54:20;;;;;;;;;;;;;;;14.97;100.00;100621.31;3058403;19;993;-47
2022/08/31 02:55:25;;;;;;;;;;;;;;;14.96;100.00;100630.34;3058575;19;949;-48
2022/08/31 02:56:27;;;;;;;;;;;;;;;14.95;100.00;100620.56;3058537;19;1376;-45
2022/08/31 02:57:31;;;;;;;;;;;;;;;14.93;100.00;100620.69;3058566;19;988;-47
2022/08/31 02:58:34;;;;;;;;;;;;;;;14.93;100.00;100625.22;3058048;19;907;-47
2022/08/31 02:59:39;;;;;;;;;;;;;;;14.92;100.00;100629.72;3058660;19;988;-48
2022/08/31 03:00:45;;;;;;;;;;;;;;;14.90;100.00;100615.53;3058500;19;853;-47
2022/08/31 03:01:51;;;;;;;;;;;;;;;14.93;100.00;100625.22;3059010;19;929;-47
2022/08/31 03:02:53;;;;;;;;;;;;;;;14.93;100.00;100630.59;3058327;19;1020;-46
2022/08/31 03:03:59;;;;;;;;;;;;;;;14.92;100.00;100624.34;3058739;19;870;-47
2022/08/31 03:05:02;;;;;;;;;;;;;;;14.92;100.00;100626.19;3058338;19;938;-48
2022/08/31 03:06:06;;;;;;;;;;;;;;;14.93;100.00;100625.22;3057834;19;1850;-49
2022/08/31 03:07:08;;;;;;;;;;;;;;;14.93;100.00;100625.22;3058565;19;921;-49
2022/08/31 03:08:13;;;;;;;;;;;;;;;14.95;100.00;100628.63;3058382;19;929;-46
2022/08/31 03:09:16;;;;;;;;;;;;;;;14.95;100.00;100618.75;3058205;19;1012;-48
2022/08/31 03:10:22;;;;;;;;;;;;;;;14.96;100.00;100631.22;3058544;19;851;-46
2022/08/31 03:11:25;;;;;;;;;;;;;;;14.98;100.00;100628.38;3058646;19;936;-47
2022/08/31 03:12:30;;;;;;;;;;;;;;;15.00;100.00;100626.44;3058724;19;890;-49
2022/08/31 03:13:32;;;;;;;;;;;;;;;15.01;100.00;100633.53;3058164;19;909;-46
2022/08/31 03:14:37;;;;;;;;;;;;;;;15.02;100.00;100624.50;3058384;19;1307;-48
2022/08/31 03:15:39;;;;;;;;;;;;;;;15.04;100.00;100627.91;3058386;19;925;-48
2022/08/31 03:16:44;;;;;;;;;;;;;;;15.06;100.00;100625.97;3058328;19;941;-46
2022/08/31 03:17:46;;;;;;;;;;;;;;;15.07;100.00;100627.69;3058341;19;1781;-46
2022/08/31 03:18:51;;;;;;;;;;;;;;;15.08;100.00;100630.25;3058286;19;1197;-47
2022/08/31 03:20:02;;;;;;;;;;;;;;;15.09;100.00;100623.88;3058182;19;1067;-47
2022/08/31 03:21:07;;;;;;;;;;;;;;;15.12;100.00;100633.53;3058321;19;845;-47
2022/08/31 03:22:12;;;;;;;;;;;;;;;15.11;100.00;100629.13;3058366;19;1042;-47
2022/08/31 03:23:16;;;;;;;;;;;;;;;15.11;100.00;100627.31;3058015;19;1818;-47
2022/08/31 03:24:20;;;;;;;;;;;;;;;15.13;100.00;100637.94;3058280;19;803;-47
2022/08/31 03:25:30;;;;;;;;;;;;;;;15.13;100.00;100632.56;3058310;19;943;-48
2022/08/31 03:26:32;;;;;;;;;;;;;;;15.12;100.00;100637.09;3057608;19;1876;-46
2022/08/31 03:27:36;;;;;;;;;;;;;;;15.13;100.00;100637.94;3057591;19;960;-48
2022/08/31 03:28:38;;;;;;;;;;;;;;;15.14;100.00;100639.66;3058660;19;885;-46
2022/08/31 03:30:03;;;;;;;;;;;;;;;15.16;100.00;100637.72;3058495;19;1455;-47
2022/08/31 03:31:06;;;;;;;;;;;;;;;15.18;100.00;100640.28;3059321;19;869;-46
2022/08/31 03:32:11;;;;;;;;;;;;;;;15.17;100.00;100650.19;3058190;19;941;-46
2022/08/31 03:33:15;;;;;;;;;;;;;;;15.18;100.00;100643.84;3058257;19;1012;-45
2022/08/31 03:34:20;;;;;;;;;;;;;;;15.20;100.00;100643.72;3058036;19;888;-48
2022/08/31 03:35:22;;;;;;;;;;;;;;;15.20;100.00;100649.94;3058043;19;1028;-48
2022/08/31 03:36:27;;;;;;;;;;;;;;;15.21;100.00;100651.66;3057859;19;1692;-47
2022/08/31 03:37:29;;;;;;;;;;;;;;;15.23;100.00;100643.44;3058509;19;968;-48
2022/08/31 03:38:36;;;;;;;;;;;;;;;15.24;100.00;100655.91;3057923;19;1028;-46
2022/08/31 03:39:37;;;;;;;;;;;;;;;15.25;100.00;100650.44;3058323;19;997;-47
2022/08/31 03:40:42;;;;;;;;;;;;;;;15.25;100.00;100650.44;3057984;19;980;-46
2022/08/31 03:41:44;;;;;;;;;;;;;;;15.28;100.00;100658.25;3058240;19;1027;-48
2022/08/31 03:42:49;;;;;;;;;;;;;;;15.30;100.00;100656.31;3057986;19;1249;-47
2022/08/31 03:43:51;;;;;;;;;;;;;;;15.33;100.00;100660.59;3057930;19;1023;-49
2022/08/31 03:44:56;;;;;;;;;;;;;;;15.33;100.00;100657.91;3057751;19;1172;-45
2022/08/31 03:46:03;;;;;;;;;;;;;;;15.36;100.00;100661.19;3058131;19;940;-49
2022/08/31 03:47:15;;;;;;;;;;;;;;;15.36;100.00;100660.34;3058085;19;984;-46
2022/08/31 03:48:17;;;;;;;;;;;;;;;15.38;100.00;100663.75;3057848;19;1023;-48
2022/08/31 03:49:23;;;;;;;;;;;;;;;15.39;100.00;100666.34;3057684;19;1048;-48
2022/08/31 03:50:42;;;;;;;;;;;;;;;15.40;100.00;100664.50;3057974;19;948;-47
2022/08/31 03:51:52;;;;;;;;;;;;;;;15.40;100.00;100672.56;3057800;19;973;-46
2022/08/31 03:52:56;;;;;;;;;;;;;;;15.42;100.00;100673.31;3057922;19;1132;-47
2022/08/31 03:54:01;;;;;;;;;;;;;;;15.43;100.00;100667.81;3057877;19;894;-45
2022/08/31 03:55:04;;;;;;;;;;;;;;;15.45;100.00;100671.25;3057744;19;964;-47
2022/08/31 03:56:08;;;;;;;;;;;;;;;15.47;100.00;100673.78;3057933;19;881;-47
2022/08/31 03:57:15;;;;;;;;;;;;;;;15.50;100.00;100669.03;3057337;19;1000;-46
2022/08/31 03:58:19;;;;;;;;;;;;;;;15.54;100.00;100676.88;3057570;19;997;-46
2022/08/31 03:59:21;;;;;;;;;;;;;;;15.56;100.00;100680.34;3057464;19;1012;-47
2022/08/31 04:00:55;;;;;;;;;;;;;;;15.59;100.00;100677.38;3057520;19;1103;-46
2022/08/31 04:02:16;;;;;;;;;;;;;;;15.63;100.00;100678.84;3058552;19;972;-46
2022/08/31 04:03:47;;;;;;;;;;;;;;;15.68;100.00;100690.13;3056748;19;1067;-48
2022/08/31 04:05:07;;;;;;;;;;;;;;;15.72;100.00;100683.50;3058452;19;873;-47
2022/08/31 04:06:34;;;;;;;;;;;;;;;15.76;100.00;100687.66;3058502;19;1873;-50
2022/08/31 04:08:18;;;;;;;;;;;;;;;15.82;100.00;100697.91;3056835;19;984;-47
2022/08/31 04:09:58;;;;;;;;;;;;;;;15.87;100.00;100693.03;3056543;19;1097;-48
2022/08/31 04:11:21;;;;;;;;;;;;;;;15.93;100.00;100687.19;3056535;19;986;-46
2022/08/31 04:13:04;;;;;;;;;;;;;;;16.26;100.00;100698.88;3056695;19;1092;-46
2022/08/31 04:14:22;;;;;;;;;;;;;;;16.47;100.00;100710.56;3057528;19;1131;-47
2022/08/31 04:15:45;;;;;;;;;;;;;;;16.43;100.00;100717.19;3057680;19;1004;-48
2022/08/31 04:17:10;;;;;;;;;;;;;;;16.36;100.00;100726.75;3058065;19;1102;-47
2022/08/31 04:18:20;;;;;;;;;;;;;;;16.30;100.00;100733.47;3057494;19;1067;-48
2022/08/31 04:19:23;;;;;;;;;;;;;;;16.27;100.00;100731.06;3057120;19;992;-46
2022/08/31 04:20:39;;;;;;;;;;;;;;;16.24;100.00;100727.75;3057410;19;1135;-46
2022/08/31 04:21:42;;;;;;;;;;;;;;;16.21;100.00;100735.09;3057401;19;877;-46
2022/08/31 04:22:48;;;;;;;;;;;;;;;16.20;100.00;100733.38;3057555;19;1193;-46
2022/08/31 04:24:02;;;;;;;;;;;;;;;16.20;100.00;100738.75;3057402;19;1219;-46
2022/08/31 04:25:09;;;;;;;;;;;;;;;16.19;100.00;100742.44;3057452;19;956;-48
2022/08/31 04:26:14;;;;;;;;;;;;;;;16.18;100.00;100751.50;3056832;19;1027;-48
2022/08/31 04:27:19;;;;;;;;;;;;;;;16.16;100.00;100750.78;3056981;19;1854;-47
2022/08/31 04:28:21;;;;;;;;;;;;;;;16.16;100.00;100752.63;3058086;19;937;-46
2022/08/31 04:29:25;;;;;;;;;;;;;;;16.16;100.00;100756.19;3058259;19;877;-49
2022/08/31 04:30:27;;;;;;;;;;;;;;;16.15;100.00;100750.91;3056245;19;1276;-47
2022/08/31 04:31:32;;;;;;;;;;;;;;;16.15;100.00;100764.38;3057105;19;987;-46
2022/08/31 04:32:34;;;;;;;;;;;;;;;16.15;100.00;100757.16;3057023;19;1001;-48
2022/08/31 04:33:39;;;;;;;;;;;;;;;16.15;100.00;100757.16;3057270;19;890;-46
2022/08/31 04:34:41;;;;;;;;;;;;;;;16.15;100.00;100750.91;3057285;19;979;-46
2022/08/31 04:35:45;;;;;;;;;;;;;;;16.15;100.00;100757.16;3057698;19;1607;-49
2022/08/31 04:36:47;;;;;;;;;;;;;;;16.16;100.00;100753.47;3057020;19;1017;-48
2022/08/31 04:37:52;;;;;;;;;;;;;;;16.17;100.00;100751.66;3057292;19;961;-46
2022/08/31 04:38:56;;;;;;;;;;;;;;;16.18;100.00;100758.75;3057201;19;885;-47
2022/08/31 04:40:02;;;;;;;;;;;;;;;16.18;100.00;100759.56;3057054;19;1059;-47
2022/08/31 04:41:08;;;;;;;;;;;;;;;16.20;100.00;100771.09;3057085;19;928;-47
2022/08/31 04:42:13;;;;;;;;;;;;;;;16.20;100.00;100765.69;3057109;19;1059;-47
2022/08/31 04:43:15;;;;;;;;;;;;;;;16.23;100.00;100774.50;3057291;19;944;-46
2022/08/31 04:44:19;;;;;;;;;;;;;;;16.27;100.00;100770.59;3057131;19;905;-48
2022/08/31 04:45:29;;;;;;;;;;;;;;;16.30;100.00;100773.06;3057306;19;897;-46
2022/08/31 04:46:34;;;;;;;;;;;;;;;16.32;100.00;100769.22;3056590;19;1028;-46
2022/08/31 04:47:36;;;;;;;;;;;;;;;16.35;100.00;100770.81;3055856;19;1857;-46
2022/08/31 04:48:41;;;;;;;;;;;;;;;16.36;100.00;100769.84;3057476;19;1011;-48
2022/08/31 04:49:43;;;;;;;;;;;;;;;16.39;100.00;100770.47;3057887;19;1108;-46
2022/08/31 04:50:49;;;;;;;;;;;;;;;16.41;100.00;100773.03;3057237;19;1959;-48
2022/08/31 04:51:53;;;;;;;;;;;;;;;16.45;100.00;100780.72;3057434;19;937;-47
2022/08/31 04:52:55;;;;;;;;;;;;;;;16.48;100.00;100779.63;3056924;19;873;-48
2022/08/31 04:54:08;;;;;;;;;;;;;;;16.52;100.00;100781.09;3057113;19;893;-46
2022/08/31 04:55:10;;;;;;;;;;;;;;;16.54;100.00;100789.91;3056826;19;874;-47
2022/08/31 04:56:16;;;;;;;;;;;;;;;16.57;100.00;100789.66;3057523;19;1762;-45
2022/08/31 04:57:21;;;;;;;;;;;;;;;16.56;100.00;100788.78;3057048;19;897;-47
2022/08/31 04:58:23;;;;;;;;;;;;;;;16.63;100.00;100794.59;3057076;19;972;-45
2022/08/31 04:59:28;;;;;;;;;;;;;;;16.68;100.00;100795.03;3057058;19;1127;-46
2022/08/31 05:01:01;;;;;;;;;;;;;;;16.75;100.00;100798.97;3058018;19;1718;-46
2022/08/31 05:02:24;;;;;;;;;;;;;;;16.80;100.00;100807.50;3057390;19;1147;-48
2022/08/31 05:03:33;;;;;;;;;;;;;;;16.83;100.00;100801.00;3056827;19;1202;-47
2022/08/31 05:04:37;;;;;;;;;;;;;;;16.86;100.00;100815.09;3056487;19;1682;-48
2022/08/31 05:05:40;;;;;;;;;;;;;;;16.90;100.00;100813.84;3056495;19;1019;-47
2022/08/31 05:06:45;;;;;;;;;;;;;;;16.92;100.00;100828.06;3056558;19;933;-47
2022/08/31 05:07:48;;;;;;;;;;;;;;;16.93;100.00;100816.31;3057051;19;2014;-48
2022/08/31 05:09:18;;;;;;;;;;;;;;;16.93;100.00;100810.03;3056333;19;1790;-46
2022/08/31 05:10:23;;;;;;;;;;;;;;;17.02;100.00;100813.84;3056511;19;1468;-48
2022/08/31 05:11:28;;;;;;;;;;;;;;;17.07;100.00;100815.16;3057262;19;1181;-48
2022/08/31 05:12:33;;;;;;;;;;;;;;;17.12;100.00;100822.88;3056923;19;1015;-47
2022/08/31 05:13:36;;;;;;;;;;;;;;;17.19;100.00;100818.66;3056596;19;1026;-47
2022/08/31 05:14:42;;;;;;;;;;;;;;;17.25;100.00;100812.78;3056567;19;976;-47
2022/08/31 05:15:54;;;;;;;;;;;;;;;17.35;100.00;100813.69;3056468;19;1040;-48
2022/08/31 05:17:00;;;;;;;;;;;;;;;17.43;100.00;100826.53;3056631;19;1195;-48
2022/08/31 05:18:04;;;;;;;;;;;;;;;17.52;100.00;100832.00;3057064;19;1718;-49
2022/08/31 05:19:12;;;;;;;;;;;;;;;17.57;100.00;100837.88;3058076;19;1234;-46
2022/08/31 05:20:14;;;;;;;;;;;;;;;17.67;100.00;100850.59;3056625;19;980;-46
2022/08/31 05:21:26;;;;;;;;;;;;;;;17.71;100.00;100841.25;3056313;19;1000;-46
2022/08/31 05:22:28;;;;;;;;;;;;;;;17.80;100.00;100848.56;3057261;19;912;-48
2022/08/31 05:23:34;;;;;;;;;;;;;;;17.87;100.00;100852.47;3042852;19;1847;-46
2022/08/31 05:24:37;;;;;;;;;;;;;;;17.93;100.00;100851.94;3050993;19;1364;-48
2022/08/31 05:25:43;;;;;;;;;;;;;;;17.99;100.00;100873.00;3050642;19;1465;-49
2022/08/31 05:26:47;;;;;;;;;;;;;;;18.04;100.00;100869.91;3050516;19;1458;-49
2022/08/31 05:27:54;;;;;;;;;;;;;;;18.10;100.00;100877.47;3050508;19;1865;-46
2022/08/31 05:29:00;;;;;;;;;;;;;;;18.18;100.00;100875.81;3050520;19;1664;-47
2022/08/31 05:30:05;;;;;;;;;;;;;;;18.26;100.00;100876.00;3050266;19;1424;-47
2022/08/31 05:31:28;;;;;;;;;;;;;;;18.38;100.00;100879.47;3054076;19;1422;-48
2022/08/31 05:32:35;;;;;;;;;;;;;;;18.49;100.00;100892.03;3056731;19;1729;-46
2022/08/31 05:33:40;;;;;;;;;;;;;;;18.59;100.00;100892.97;3055726;19;1437;-49
2022/08/31 05:34:45;;;;;;;;;;;;;;;18.58;100.00;100913.75;3054754;19;1071;-47
2022/08/31 05:35:47;;;;;;;;;;;;;;;18.58;100.00;100916.47;3056589;19;938;-46
2022/08/31 05:36:53;;;;;;;;;;;;;;;18.68;100.00;100913.78;3052836;19;1955;-46
2022/08/31 05:37:55;;;;;;;;;;;;;;;18.78;100.00;100917.38;3056399;19;2004;-47
2022/08/31 05:38:59;;;;;;;;;;;;;;;18.87;100.00;100923.81;3055124;19;1527;-46
2022/08/31 05:40:03;;;;;;;;;;;;;;;18.93;100.00;100912.44;3055562;19;897;-47
2022/08/31 05:41:08;;;;;;;;;;;;;;;18.97;100.00;100925.53;3055398;19;2303;-49
2022/08/31 05:42:15;;;;;;;;;;;;;;;19.00;100.00;100925.28;3056490;19;1181;-46
2022/08/31 05:43:17;;;;;;;;;;;;;;;19.10;100.00;100930.72;3056062;19;2195;-47
2022/08/31 05:44:22;;;;;;;;;;;;;;;19.17;100.00;100936.44;3054706;19;1572;-48
2022/08/31 05:45:30;;;;;;;;;;;;;;;19.26;100.00;100943.72;3056301;19;1388;-46
2022/08/31 05:46:34;;;;;;;;;;;;;;;19.34;100.00;100941.16;3055700;19;1184;-46